<?xml version="1.0" encoding="UTF-8" standalone="no" ?>
<gpx xmlns="http://www.topografix.com/GPX/1/1" xmlns:xsi="http://www.w3.org/2001/XMLSchema-instance" xsi:schemaLocation="http://www.topografix.com/GPX/1/1 http://www.topografix.com/GPX/1/1/gpx.xsd" version="1.1" creator="VisuGPX - https://www.visugpx.com">
  <metadata>
    <name>Torfou_Bataille_12-21km</name>
    <desc><![CDATA[gnerando idor:8208323_8287903_8309224]]></desc>
  </metadata>
  <trk>
    <name><![CDATA[Torfou_Tiffauges_21.7km-8208323]]></name>
    <extensions>
      <line xmlns="http://www.topografix.com/GPX/gpx_style/0/2">
        <color>0000FF</color>
        <width>4</width>
      </line>
    </extensions>
    <trkseg>
      <trkpt lat="47.03797" lon="-1.11716">
        <ele>100</ele>
        <time>2023-11-14T05:29:23Z</time>
      </trkpt>
      <trkpt lat="47.03834" lon="-1.11893">
        <ele>94</ele>
        <time>2023-11-14T05:32:11Z</time>
      </trkpt>
      <trkpt lat="47.03796" lon="-1.12078">
        <ele>90</ele>
        <time>2023-11-14T05:35:07Z</time>
      </trkpt>
      <trkpt lat="47.03733" lon="-1.12062">
        <ele>98</ele>
        <time>2023-11-14T05:36:32Z</time>
      </trkpt>
      <trkpt lat="47.03605" lon="-1.12082">
        <ele>100</ele>
        <time>2023-11-14T05:39:24Z</time>
      </trkpt>
      <trkpt lat="47.03236" lon="-1.12389">
        <ele>93</ele>
        <time>2023-11-14T05:48:50Z</time>
      </trkpt>
      <trkpt lat="47.03121" lon="-1.12821">
        <ele>90</ele>
        <time>2023-11-14T05:55:52Z</time>
      </trkpt>
      <trkpt lat="47.02844" lon="-1.13639">
        <ele>76</ele>
        <time>2023-11-14T06:09:43Z</time>
      </trkpt>
      <trkpt lat="47.02735" lon="-1.13623">
        <ele>75</ele>
        <time>2023-11-14T06:12:09Z</time>
      </trkpt>
      <trkpt lat="47.02581" lon="-1.13745">
        <ele>50</ele>
        <time>2023-11-14T06:16:03Z</time>
      </trkpt>
      <trkpt lat="47.02325" lon="-1.13178">
        <ele>52</ele>
        <time>2023-11-14T06:26:21Z</time>
      </trkpt>
      <trkpt lat="47.02393" lon="-1.12962">
        <ele>52</ele>
        <time>2023-11-14T06:29:58Z</time>
      </trkpt>
      <trkpt lat="47.02385" lon="-1.12759">
        <ele>50</ele>
        <time>2023-11-14T06:33:03Z</time>
      </trkpt>
      <trkpt lat="47.02257" lon="-1.12674">
        <ele>47</ele>
        <time>2023-11-14T06:36:10Z</time>
      </trkpt>
      <trkpt lat="47.02197" lon="-1.12295">
        <ele>54</ele>
        <time>2023-11-14T06:42:04Z</time>
      </trkpt>
      <trkpt lat="47.02257" lon="-1.12179">
        <ele>64</ele>
        <time>2023-11-14T06:44:17Z</time>
      </trkpt>
      <trkpt lat="47.02173" lon="-1.11766">
        <ele>61</ele>
        <time>2023-11-14T06:50:49Z</time>
      </trkpt>
      <trkpt lat="47.01864" lon="-1.11305">
        <ele>57</ele>
        <time>2023-11-14T07:00:37Z</time>
      </trkpt>
      <trkpt lat="47.01655" lon="-1.11121">
        <ele>53</ele>
        <time>2023-11-14T07:06:02Z</time>
      </trkpt>
      <trkpt lat="47.01606" lon="-1.11124">
        <ele>50</ele>
        <time>2023-11-14T07:07:08Z</time>
      </trkpt>
      <trkpt lat="47.01586" lon="-1.11328">
        <ele>58</ele>
        <time>2023-11-14T07:10:15Z</time>
      </trkpt>
      <trkpt lat="47.01655" lon="-1.11303">
        <ele>54</ele>
        <time>2023-11-14T07:11:50Z</time>
      </trkpt>
      <trkpt lat="47.01783" lon="-1.11384">
        <ele>53</ele>
        <time>2023-11-14T07:14:56Z</time>
      </trkpt>
      <trkpt lat="47.01855" lon="-1.11538">
        <ele>51</ele>
        <time>2023-11-14T07:17:46Z</time>
      </trkpt>
      <trkpt lat="47.02013" lon="-1.11797">
        <ele>59</ele>
        <time>2023-11-14T07:23:02Z</time>
      </trkpt>
      <trkpt lat="47.02129" lon="-1.1248">
        <ele>55</ele>
        <time>2023-11-14T07:33:42Z</time>
      </trkpt>
      <trkpt lat="47.02086" lon="-1.12558">
        <ele>59</ele>
        <time>2023-11-14T07:35:14Z</time>
      </trkpt>
      <trkpt lat="47.02088" lon="-1.12837">
        <ele>54</ele>
        <time>2023-11-14T07:39:28Z</time>
      </trkpt>
      <trkpt lat="47.01985" lon="-1.13059">
        <ele>63</ele>
        <time>2023-11-14T07:43:32Z</time>
      </trkpt>
      <trkpt lat="47.01815" lon="-1.13247">
        <ele>70</ele>
        <time>2023-11-14T07:48:16Z</time>
      </trkpt>
      <trkpt lat="47.01725" lon="-1.12856">
        <ele>79</ele>
        <time>2023-11-14T07:54:31Z</time>
      </trkpt>
      <trkpt lat="47.01738" lon="-1.12505">
        <ele>80</ele>
        <time>2023-11-14T07:59:51Z</time>
      </trkpt>
      <trkpt lat="47.01593" lon="-1.11907">
        <ele>78</ele>
        <time>2023-11-14T08:09:29Z</time>
      </trkpt>
      <trkpt lat="47.01497" lon="-1.11863">
        <ele>68</ele>
        <time>2023-11-14T08:11:43Z</time>
      </trkpt>
      <trkpt lat="47.01394" lon="-1.11998">
        <ele>65</ele>
        <time>2023-11-14T08:14:47Z</time>
      </trkpt>
      <trkpt lat="47.01362" lon="-1.11979">
        <ele>61</ele>
        <time>2023-11-14T08:15:33Z</time>
      </trkpt>
      <trkpt lat="47.01422" lon="-1.11819">
        <ele>56</ele>
        <time>2023-11-14T08:18:19Z</time>
      </trkpt>
      <trkpt lat="47.01426" lon="-1.11641">
        <ele>66</ele>
        <time>2023-11-14T08:21:01Z</time>
      </trkpt>
      <trkpt lat="47.01537" lon="-1.11384">
        <ele>68</ele>
        <time>2023-11-14T08:25:38Z</time>
      </trkpt>
      <trkpt lat="47.01614" lon="-1.11033">
        <ele>53</ele>
        <time>2023-11-14T08:31:14Z</time>
      </trkpt>
      <trkpt lat="47.01616" lon="-1.10802">
        <ele>56</ele>
        <time>2023-11-14T08:34:44Z</time>
      </trkpt>
      <trkpt lat="47.01552" lon="-1.10473">
        <ele>59</ele>
        <time>2023-11-14T08:39:55Z</time>
      </trkpt>
      <trkpt lat="47.01582" lon="-1.10122">
        <ele>71</ele>
        <time>2023-11-14T08:45:17Z</time>
      </trkpt>
      <trkpt lat="47.01798" lon="-1.10122">
        <ele>89</ele>
        <time>2023-11-14T08:50:05Z</time>
      </trkpt>
      <trkpt lat="47.01789" lon="-1.0985">
        <ele>90</ele>
        <time>2023-11-14T08:54:13Z</time>
      </trkpt>
      <trkpt lat="47.01828" lon="-1.09834">
        <ele>92</ele>
        <time>2023-11-14T08:55:07Z</time>
      </trkpt>
      <trkpt lat="47.03185" lon="-1.09221">
        <ele>115</ele>
        <time>2023-11-14T09:26:42Z</time>
      </trkpt>
      <trkpt lat="47.03318" lon="-1.09326">
        <ele>114</ele>
        <time>2023-11-14T09:30:03Z</time>
      </trkpt>
      <trkpt lat="47.03537" lon="-1.08974">
        <ele>116</ele>
        <time>2023-11-14T09:37:17Z</time>
      </trkpt>
      <trkpt lat="47.03881" lon="-1.09116">
        <ele>113</ele>
        <time>2023-11-14T09:45:14Z</time>
      </trkpt>
      <trkpt lat="47.03885" lon="-1.09242">
        <ele>115</ele>
        <time>2023-11-14T09:47:09Z</time>
      </trkpt>
      <trkpt lat="47.03526" lon="-1.099">
        <ele>114</ele>
        <time>2023-11-14T09:59:55Z</time>
      </trkpt>
      <trkpt lat="47.03425" lon="-1.10316">
        <ele>109</ele>
        <time>2023-11-14T10:06:37Z</time>
      </trkpt>
      <trkpt lat="47.03329" lon="-1.09916">
        <ele>107</ele>
        <time>2023-11-14T10:13:02Z</time>
      </trkpt>
      <trkpt lat="47.0316" lon="-1.09974">
        <ele>104</ele>
        <time>2023-11-14T10:16:54Z</time>
      </trkpt>
      <trkpt lat="47.02995" lon="-1.09927">
        <ele>107</ele>
        <time>2023-11-14T10:20:38Z</time>
      </trkpt>
      <trkpt lat="47.02909" lon="-1.09974">
        <ele>105</ele>
        <time>2023-11-14T10:22:41Z</time>
      </trkpt>
      <trkpt lat="47.02263" lon="-1.1089">
        <ele>91</ele>
        <time>2023-11-14T10:42:40Z</time>
      </trkpt>
      <trkpt lat="47.02377" lon="-1.11011">
        <ele>85</ele>
        <time>2023-11-14T10:45:48Z</time>
      </trkpt>
      <trkpt lat="47.03347" lon="-1.10585">
        <ele>105</ele>
        <time>2023-11-14T11:08:19Z</time>
      </trkpt>
      <trkpt lat="47.03469" lon="-1.10485">
        <ele>110</ele>
        <time>2023-11-14T11:11:25Z</time>
      </trkpt>
      <trkpt lat="47.03662" lon="-1.1038">
        <ele>110</ele>
        <time>2023-11-14T11:16:00Z</time>
      </trkpt>
      <trkpt lat="47.04308" lon="-1.10195">
        <ele>103</ele>
        <time>2023-11-14T11:30:38Z</time>
      </trkpt>
      <trkpt lat="47.04825" lon="-1.09879">
        <ele>103</ele>
        <time>2023-11-14T11:43:06Z</time>
      </trkpt>
      <trkpt lat="47.04929" lon="-1.09779">
        <ele>106</ele>
        <time>2023-11-14T11:45:52Z</time>
      </trkpt>
      <trkpt lat="47.0518" lon="-1.1029">
        <ele>101</ele>
        <time>2023-11-14T11:55:24Z</time>
      </trkpt>
      <trkpt lat="47.04854" lon="-1.10348">
        <ele>98</ele>
        <time>2023-11-14T12:02:43Z</time>
      </trkpt>
      <trkpt lat="47.04753" lon="-1.10459">
        <ele>97</ele>
        <time>2023-11-14T12:05:31Z</time>
      </trkpt>
      <trkpt lat="47.04699" lon="-1.10775">
        <ele>96</ele>
        <time>2023-11-14T12:10:27Z</time>
      </trkpt>
      <trkpt lat="47.04677" lon="-1.1107">
        <ele>97</ele>
        <time>2023-11-14T12:14:57Z</time>
      </trkpt>
      <trkpt lat="47.0453" lon="-1.10969">
        <ele>90</ele>
        <time>2023-11-14T12:18:34Z</time>
      </trkpt>
      <trkpt lat="47.04304" lon="-1.11099">
        <ele>90</ele>
        <time>2023-11-14T12:23:58Z</time>
      </trkpt>
      <trkpt lat="47.04277" lon="-1.11238">
        <ele>89</ele>
        <time>2023-11-14T12:26:09Z</time>
      </trkpt>
      <trkpt lat="47.04198" lon="-1.11467">
        <ele>87</ele>
        <time>2023-11-14T12:30:02Z</time>
      </trkpt>
      <trkpt lat="47.04121" lon="-1.11559">
        <ele>84</ele>
        <time>2023-11-14T12:32:15Z</time>
      </trkpt>
      <trkpt lat="47.04127" lon="-1.11656">
        <ele>82</ele>
        <time>2023-11-14T12:33:43Z</time>
      </trkpt>
      <trkpt lat="47.04073" lon="-1.11683">
        <ele>80</ele>
        <time>2023-11-14T12:35:00Z</time>
      </trkpt>
      <trkpt lat="47.04006" lon="-1.11613">
        <ele>84</ele>
        <time>2023-11-14T12:36:49Z</time>
      </trkpt>
      <trkpt lat="47.03908" lon="-1.11776">
        <ele>89</ele>
        <time>2023-11-14T12:40:07Z</time>
      </trkpt>
      <trkpt lat="47.03877" lon="-1.11733">
        <ele>94</ele>
        <time>2023-11-14T12:41:04Z</time>
      </trkpt>
      <trkpt lat="47.03791" lon="-1.11739">
        <ele>100</ele>
        <time>2023-11-14T12:42:59Z</time>
      </trkpt>
    </trkseg>
  </trk>
</gpx>